sensor_id;sensor_type;location;lat;lon;timestamp;P1;durP1;ratioP1;P2;durP2;ratioP2
6725;SDS011;3400;48.506;11.692;2023-09-18T00:01:02;5.50;;;5.00;;
6725;SDS011;3400;48.506;11.692;2023-09-18T00:03:31;6.33;;;5.73;;
6725;SDS011;3400;48.506;11.692;2023-09-18T00:05:59;5.73;;;5.00;;
6725;SDS011;3400;48.506;11.692;2023-09-18T00:08:27;6.57;;;5.47;;
6725;SDS011;3400;48.506;11.692;2023-09-18T00:10:55;5.77;;;5.37;;
6725;SDS011;3400;48.506;11.692;2023-09-18T00:13:23;6.07;;;5.57;;
6725;SDS011;3400;48.506;11.692;2023-09-18T00:15:54;5.10;;;4.80;;
6725;SDS011;3400;48.506;11.692;2023-09-18T00:18:25;5.80;;;5.40;;
6725;SDS011;3400;48.506;11.692;2023-09-18T00:20:53;5.83;;;5.40;;
6725;SDS011;3400;48.506;11.692;2023-09-18T00:23:21;5.70;;;5.00;;
6725;SDS011;3400;48.506;11.692;2023-09-18T00:25:49;6.17;;;5.63;;
6725;SDS011;3400;48.506;11.692;2023-09-18T00:28:17;5.97;;;5.57;;
6725;SDS011;3400;48.506;11.692;2023-09-18T00:30:47;5.87;;;5.27;;
6725;SDS011;3400;48.506;11.692;2023-09-18T00:33:17;6.47;;;5.97;;
6725;SDS011;3400;48.506;11.692;2023-09-18T00:35:46;6.00;;;5.50;;
6725;SDS011;3400;48.506;11.692;2023-09-18T00:38:14;6.37;;;5.63;;
6725;SDS011;3400;48.506;11.692;2023-09-18T00:40:42;6.60;;;6.00;;
6725;SDS011;3400;48.506;11.692;2023-09-18T00:43:10;5.70;;;5.30;;
6725;SDS011;3400;48.506;11.692;2023-09-18T00:45:38;7.47;;;5.80;;
6725;SDS011;3400;48.506;11.692;2023-09-18T00:48:08;6.53;;;5.93;;
6725;SDS011;3400;48.506;11.692;2023-09-18T00:50:37;7.37;;;6.03;;
6725;SDS011;3400;48.506;11.692;2023-09-18T00:53:06;6.63;;;6.03;;
6725;SDS011;3400;48.506;11.692;2023-09-18T00:55:35;6.17;;;5.60;;
6725;SDS011;3400;48.506;11.692;2023-09-18T00:58:04;7.03;;;6.20;;
6725;SDS011;3400;48.506;11.692;2023-09-18T01:00:32;6.27;;;5.70;;
6725;SDS011;3400;48.506;11.692;2023-09-18T01:03:00;6.27;;;5.77;;
6725;SDS011;3400;48.506;11.692;2023-09-18T01:05:30;6.97;;;6.27;;
6725;SDS011;3400;48.506;11.692;2023-09-18T01:08:00;6.17;;;5.73;;
6725;SDS011;3400;48.506;11.692;2023-09-18T01:10:30;7.27;;;6.67;;
6725;SDS011;3400;48.506;11.692;2023-09-18T01:13:03;7.00;;;6.40;;
6725;SDS011;3400;48.506;11.692;2023-09-18T01:15:32;7.70;;;7.10;;
6725;SDS011;3400;48.506;11.692;2023-09-18T01:18:02;7.87;;;7.07;;
6725;SDS011;3400;48.506;11.692;2023-09-18T01:20:30;7.33;;;6.70;;
6725;SDS011;3400;48.506;11.692;2023-09-18T01:23:00;8.00;;;7.40;;
6725;SDS011;3400;48.506;11.692;2023-09-18T01:25:27;7.50;;;6.53;;
6725;SDS011;3400;48.506;11.692;2023-09-18T01:27:59;7.63;;;6.90;;
6725;SDS011;3400;48.506;11.692;2023-09-18T01:30:27;7.33;;;6.63;;
6725;SDS011;3400;48.506;11.692;2023-09-18T01:32:55;7.53;;;6.83;;
6725;SDS011;3400;48.506;11.692;2023-09-18T01:35:24;7.70;;;7.03;;
6725;SDS011;3400;48.506;11.692;2023-09-18T01:37:55;7.50;;;6.90;;
6725;SDS011;3400;48.506;11.692;2023-09-18T01:40:25;8.67;;;7.77;;
6725;SDS011;3400;48.506;11.692;2023-09-18T01:42:53;8.17;;;7.37;;
6725;SDS011;3400;48.506;11.692;2023-09-18T01:45:20;7.63;;;7.00;;
6725;SDS011;3400;48.506;11.692;2023-09-18T01:47:48;7.43;;;6.70;;
6725;SDS011;3400;48.506;11.692;2023-09-18T01:50:18;6.90;;;6.30;;
6725;SDS011;3400;48.506;11.692;2023-09-18T01:52:47;7.13;;;6.53;;
6725;SDS011;3400;48.506;11.692;2023-09-18T01:55:15;6.90;;;6.30;;
6725;SDS011;3400;48.506;11.692;2023-09-18T01:57:44;7.07;;;6.37;;
6725;SDS011;3400;48.506;11.692;2023-09-18T02:00:12;6.80;;;6.20;;
6725;SDS011;3400;48.506;11.692;2023-09-18T02:02:41;8.00;;;7.23;;
6725;SDS011;3400;48.506;11.692;2023-09-18T02:05:09;7.80;;;7.10;;
6725;SDS011;3400;48.506;11.692;2023-09-18T02:07:37;7.87;;;7.07;;
6725;SDS011;3400;48.506;11.692;2023-09-18T02:10:05;7.90;;;7.10;;
6725;SDS011;3400;48.506;11.692;2023-09-18T02:12:33;7.77;;;7.07;;
6725;SDS011;3400;48.506;11.692;2023-09-18T02:15:03;8.43;;;7.73;;
6725;SDS011;3400;48.506;11.692;2023-09-18T02:17:32;8.33;;;7.70;;
6725;SDS011;3400;48.506;11.692;2023-09-18T02:20:00;8.23;;;7.53;;
6725;SDS011;3400;48.506;11.692;2023-09-18T02:22:31;7.23;;;6.63;;
6725;SDS011;3400;48.506;11.692;2023-09-18T02:24:59;9.13;;;8.23;;
6725;SDS011;3400;48.506;11.692;2023-09-18T02:27:27;7.30;;;6.60;;
6725;SDS011;3400;48.506;11.692;2023-09-18T02:29:55;8.20;;;7.50;;
6725;SDS011;3400;48.506;11.692;2023-09-18T02:32:24;8.47;;;7.67;;
6725;SDS011;3400;48.506;11.692;2023-09-18T02:34:52;7.83;;;7.13;;
6725;SDS011;3400;48.506;11.692;2023-09-18T02:37:20;7.77;;;7.07;;
6725;SDS011;3400;48.506;11.692;2023-09-18T02:39:48;8.43;;;7.70;;
6725;SDS011;3400;48.506;11.692;2023-09-18T02:42:16;9.23;;;8.33;;
6725;SDS011;3400;48.506;11.692;2023-09-18T02:44:44;8.73;;;7.90;;
6725;SDS011;3400;48.506;11.692;2023-09-18T02:47:12;7.00;;;6.40;;
6725;SDS011;3400;48.506;11.692;2023-09-18T02:49:41;7.63;;;6.90;;
6725;SDS011;3400;48.506;11.692;2023-09-18T02:52:09;7.77;;;7.07;;
6725;SDS011;3400;48.506;11.692;2023-09-18T02:54:37;8.40;;;7.60;;
6725;SDS011;3400;48.506;11.692;2023-09-18T02:57:06;8.60;;;7.90;;
6725;SDS011;3400;48.506;11.692;2023-09-18T02:59:34;8.13;;;7.50;;
6725;SDS011;3400;48.506;11.692;2023-09-18T03:02:02;8.37;;;7.67;;
6725;SDS011;3400;48.506;11.692;2023-09-18T03:04:30;8.00;;;7.33;;
6725;SDS011;3400;48.506;11.692;2023-09-18T03:07:00;8.77;;;7.93;;
6725;SDS011;3400;48.506;11.692;2023-09-18T03:09:28;7.63;;;6.93;;
6725;SDS011;3400;48.506;11.692;2023-09-18T03:11:57;7.80;;;7.20;;
6725;SDS011;3400;48.506;11.692;2023-09-18T03:14:25;7.73;;;7.03;;
6725;SDS011;3400;48.506;11.692;2023-09-18T03:16:53;7.53;;;6.83;;
6725;SDS011;3400;48.506;11.692;2023-09-18T03:19:21;8.03;;;7.33;;
6725;SDS011;3400;48.506;11.692;2023-09-18T03:21:51;7.77;;;7.07;;
6725;SDS011;3400;48.506;11.692;2023-09-18T03:24:20;8.60;;;7.90;;
6725;SDS011;3400;48.506;11.692;2023-09-18T03:26:48;8.27;;;7.57;;
6725;SDS011;3400;48.506;11.692;2023-09-18T03:29:16;8.00;;;7.30;;
6725;SDS011;3400;48.506;11.692;2023-09-18T03:31:44;8.20;;;7.50;;
6725;SDS011;3400;48.506;11.692;2023-09-18T03:34:12;7.97;;;7.20;;
6725;SDS011;3400;48.506;11.692;2023-09-18T03:36:40;7.63;;;6.93;;
6725;SDS011;3400;48.506;11.692;2023-09-18T03:39:08;8.23;;;7.53;;
6725;SDS011;3400;48.506;11.692;2023-09-18T03:41:37;8.13;;;7.43;;
6725;SDS011;3400;48.506;11.692;2023-09-18T03:44:05;7.73;;;7.00;;
6725;SDS011;3400;48.506;11.692;2023-09-18T03:46:35;7.63;;;6.87;;
6725;SDS011;3400;48.506;11.692;2023-09-18T03:49:03;7.90;;;7.10;;
6725;SDS011;3400;48.506;11.692;2023-09-18T03:51:35;7.63;;;7.03;;
6725;SDS011;3400;48.506;11.692;2023-09-18T03:54:03;7.30;;;6.70;;
6725;SDS011;3400;48.506;11.692;2023-09-18T03:56:31;8.27;;;7.63;;
6725;SDS011;3400;48.506;11.692;2023-09-18T03:59:00;8.63;;;7.83;;
6725;SDS011;3400;48.506;11.692;2023-09-18T04:01:30;8.07;;;7.33;;
6725;SDS011;3400;48.506;11.692;2023-09-18T04:03:58;8.13;;;7.53;;
6725;SDS011;3400;48.506;11.692;2023-09-18T04:06:35;10.20;;;7.60;;
6725;SDS011;3400;48.506;11.692;2023-09-18T04:09:03;8.20;;;7.37;;
6725;SDS011;3400;48.506;11.692;2023-09-18T04:11:31;7.77;;;7.07;;
6725;SDS011;3400;48.506;11.692;2023-09-18T04:14:00;8.33;;;7.17;;
6725;SDS011;3400;48.506;11.692;2023-09-18T04:16:29;7.77;;;7.17;;
6725;SDS011;3400;48.506;11.692;2023-09-18T04:19:01;8.30;;;6.93;;
6725;SDS011;3400;48.506;11.692;2023-09-18T04:21:29;7.63;;;6.93;;
6725;SDS011;3400;48.506;11.692;2023-09-18T04:23:57;7.53;;;6.83;;
6725;SDS011;3400;48.506;11.692;2023-09-18T04:26:25;7.70;;;7.00;;
6725;SDS011;3400;48.506;11.692;2023-09-18T04:28:56;8.13;;;7.33;;
6725;SDS011;3400;48.506;11.692;2023-09-18T04:31:26;7.00;;;6.40;;
6725;SDS011;3400;48.506;11.692;2023-09-18T04:33:54;7.27;;;6.47;;
6725;SDS011;3400;48.506;11.692;2023-09-18T04:36:22;7.90;;;7.20;;
6725;SDS011;3400;48.506;11.692;2023-09-18T04:38:50;6.90;;;6.23;;
6725;SDS011;3400;48.506;11.692;2023-09-18T04:41:18;7.70;;;6.63;;
6725;SDS011;3400;48.506;11.692;2023-09-18T04:43:46;7.47;;;6.87;;
6725;SDS011;3400;48.506;11.692;2023-09-18T04:46:15;8.70;;;7.83;;
6725;SDS011;3400;48.506;11.692;2023-09-18T04:48:45;8.83;;;7.60;;
6725;SDS011;3400;48.506;11.692;2023-09-18T04:51:13;8.10;;;7.30;;
6725;SDS011;3400;48.506;11.692;2023-09-18T04:53:41;8.00;;;6.93;;
6725;SDS011;3400;48.506;11.692;2023-09-18T04:56:09;8.07;;;7.07;;
6725;SDS011;3400;48.506;11.692;2023-09-18T04:58:37;8.10;;;7.37;;
6725;SDS011;3400;48.506;11.692;2023-09-18T05:01:05;7.73;;;7.03;;
6725;SDS011;3400;48.506;11.692;2023-09-18T05:03:36;7.17;;;6.57;;
6725;SDS011;3400;48.506;11.692;2023-09-18T05:06:06;8.13;;;7.33;;
6725;SDS011;3400;48.506;11.692;2023-09-18T05:08:34;7.23;;;6.67;;
6725;SDS011;3400;48.506;11.692;2023-09-18T05:11:01;7.70;;;6.90;;
6725;SDS011;3400;48.506;11.692;2023-09-18T05:13:29;8.70;;;7.27;;
6725;SDS011;3400;48.506;11.692;2023-09-18T05:15:57;8.50;;;6.93;;
6725;SDS011;3400;48.506;11.692;2023-09-18T05:18:26;10.77;;;7.23;;
6725;SDS011;3400;48.506;11.692;2023-09-18T05:20:54;8.07;;;7.37;;
6725;SDS011;3400;48.506;11.692;2023-09-18T05:23:24;7.50;;;6.80;;
6725;SDS011;3400;48.506;11.692;2023-09-18T05:25:51;7.33;;;6.73;;
6725;SDS011;3400;48.506;11.692;2023-09-18T05:28:19;8.50;;;7.23;;
6725;SDS011;3400;48.506;11.692;2023-09-18T05:30:47;8.13;;;7.33;;
6725;SDS011;3400;48.506;11.692;2023-09-18T05:33:15;7.03;;;6.37;;
6725;SDS011;3400;48.506;11.692;2023-09-18T05:35:44;7.17;;;6.47;;
6725;SDS011;3400;48.506;11.692;2023-09-18T05:38:12;7.50;;;6.90;;
6725;SDS011;3400;48.506;11.692;2023-09-18T05:40:41;7.60;;;6.70;;
6725;SDS011;3400;48.506;11.692;2023-09-18T05:43:10;6.60;;;6.10;;
6725;SDS011;3400;48.506;11.692;2023-09-18T05:45:38;6.83;;;6.33;;
6725;SDS011;3400;48.506;11.692;2023-09-18T05:48:07;7.20;;;6.60;;
6725;SDS011;3400;48.506;11.692;2023-09-18T05:50:35;7.80;;;7.20;;
6725;SDS011;3400;48.506;11.692;2023-09-18T05:53:03;7.83;;;7.13;;
6725;SDS011;3400;48.506;11.692;2023-09-18T05:55:31;6.73;;;6.17;;
6725;SDS011;3400;48.506;11.692;2023-09-18T05:58:01;8.77;;;7.87;;
6725;SDS011;3400;48.506;11.692;2023-09-18T06:00:30;8.70;;;7.90;;
6725;SDS011;3400;48.506;11.692;2023-09-18T06:02:58;9.30;;;8.50;;
6725;SDS011;3400;48.506;11.692;2023-09-18T06:05:26;8.03;;;7.20;;
6725;SDS011;3400;48.506;11.692;2023-09-18T06:07:56;7.70;;;7.10;;
6725;SDS011;3400;48.506;11.692;2023-09-18T06:10:24;8.20;;;7.33;;
6725;SDS011;3400;48.506;11.692;2023-09-18T06:12:52;8.07;;;7.30;;
6725;SDS011;3400;48.506;11.692;2023-09-18T06:15:22;7.33;;;6.63;;
6725;SDS011;3400;48.506;11.692;2023-09-18T06:17:50;7.33;;;6.73;;
6725;SDS011;3400;48.506;11.692;2023-09-18T06:20:18;8.17;;;7.37;;
6725;SDS011;3400;48.506;11.692;2023-09-18T06:22:46;8.43;;;7.43;;
6725;SDS011;3400;48.506;11.692;2023-09-18T06:25:13;9.13;;;8.33;;
6725;SDS011;3400;48.506;11.692;2023-09-18T06:27:41;10.40;;;7.80;;
6725;SDS011;3400;48.506;11.692;2023-09-18T06:30:10;7.33;;;6.83;;
6725;SDS011;3400;48.506;11.692;2023-09-18T06:32:39;8.00;;;7.17;;
6725;SDS011;3400;48.506;11.692;2023-09-18T06:35:07;7.00;;;6.43;;
6725;SDS011;3400;48.506;11.692;2023-09-18T06:37:35;7.63;;;6.50;;
6725;SDS011;3400;48.506;11.692;2023-09-18T06:40:04;7.10;;;6.50;;
6725;SDS011;3400;48.506;11.692;2023-09-18T06:42:32;6.90;;;6.30;;
6725;SDS011;3400;48.506;11.692;2023-09-18T06:45:01;8.30;;;6.03;;
6725;SDS011;3400;48.506;11.692;2023-09-18T06:47:30;6.63;;;6.13;;
6725;SDS011;3400;48.506;11.692;2023-09-18T06:49:59;7.03;;;6.43;;
6725;SDS011;3400;48.506;11.692;2023-09-18T06:52:27;7.13;;;6.40;;
6725;SDS011;3400;48.506;11.692;2023-09-18T06:54:55;6.80;;;6.20;;
6725;SDS011;3400;48.506;11.692;2023-09-18T06:57:24;7.10;;;6.40;;
6725;SDS011;3400;48.506;11.692;2023-09-18T06:59:53;6.53;;;6.00;;
6725;SDS011;3400;48.506;11.692;2023-09-18T07:02:21;6.03;;;5.57;;
6725;SDS011;3400;48.506;11.692;2023-09-18T07:04:49;6.87;;;6.00;;
6725;SDS011;3400;48.506;11.692;2023-09-18T07:07:18;6.27;;;5.60;;
6725;SDS011;3400;48.506;11.692;2023-09-18T07:09:50;8.37;;;6.20;;
6725;SDS011;3400;48.506;11.692;2023-09-18T07:12:18;6.43;;;5.83;;
6725;SDS011;3400;48.506;11.692;2023-09-18T07:14:46;8.60;;;6.30;;
6725;SDS011;3400;48.506;11.692;2023-09-18T07:17:14;6.50;;;5.90;;
6725;SDS011;3400;48.506;11.692;2023-09-18T07:19:42;6.87;;;6.20;;
6725;SDS011;3400;48.506;11.692;2023-09-18T07:22:10;8.27;;;7.50;;
6725;SDS011;3400;48.506;11.692;2023-09-18T07:24:40;7.43;;;6.77;;
6725;SDS011;3400;48.506;11.692;2023-09-18T07:27:08;7.83;;;6.80;;
6725;SDS011;3400;48.506;11.692;2023-09-18T07:29:36;8.17;;;6.90;;
6725;SDS011;3400;48.506;11.692;2023-09-18T07:32:05;9.23;;;7.47;;
6725;SDS011;3400;48.506;11.692;2023-09-18T07:34:33;7.93;;;7.10;;
6725;SDS011;3400;48.506;11.692;2023-09-18T07:37:01;7.83;;;7.20;;
6725;SDS011;3400;48.506;11.692;2023-09-18T07:42:32;9.10;;;7.73;;
6725;SDS011;3400;48.506;11.692;2023-09-18T07:45:01;7.97;;;7.27;;
6725;SDS011;3400;48.506;11.692;2023-09-18T07:47:30;7.63;;;7.03;;
6725;SDS011;3400;48.506;11.692;2023-09-18T07:49:59;8.83;;;6.97;;
6725;SDS011;3400;48.506;11.692;2023-09-18T07:52:28;6.70;;;6.10;;
6725;SDS011;3400;48.506;11.692;2023-09-18T07:54:57;6.50;;;5.90;;
6725;SDS011;3400;48.506;11.692;2023-09-18T07:57:25;6.30;;;5.80;;
6725;SDS011;3400;48.506;11.692;2023-09-18T07:59:55;6.47;;;5.70;;
6725;SDS011;3400;48.506;11.692;2023-09-18T08:02:23;6.10;;;5.33;;
6725;SDS011;3400;48.506;11.692;2023-09-18T08:04:54;6.93;;;5.50;;
6725;SDS011;3400;48.506;11.692;2023-09-18T08:07:22;6.23;;;5.60;;
6725;SDS011;3400;48.506;11.692;2023-09-18T08:09:50;6.00;;;5.40;;
6725;SDS011;3400;48.506;11.692;2023-09-18T08:12:18;6.97;;;5.97;;
6725;SDS011;3400;48.506;11.692;2023-09-18T08:14:46;6.37;;;5.77;;
6725;SDS011;3400;48.506;11.692;2023-09-18T08:17:17;8.60;;;6.17;;
6725;SDS011;3400;48.506;11.692;2023-09-18T08:19:45;9.23;;;6.77;;
6725;SDS011;3400;48.506;11.692;2023-09-18T08:22:13;6.87;;;6.17;;
6725;SDS011;3400;48.506;11.692;2023-09-18T08:24:42;6.47;;;5.87;;
6725;SDS011;3400;48.506;11.692;2023-09-18T08:27:13;8.13;;;6.53;;
6725;SDS011;3400;48.506;11.692;2023-09-18T08:29:42;8.17;;;6.30;;
6725;SDS011;3400;48.506;11.692;2023-09-18T08:32:10;8.60;;;6.20;;
6725;SDS011;3400;48.506;11.692;2023-09-18T08:34:39;10.63;;;5.63;;
6725;SDS011;3400;48.506;11.692;2023-09-18T08:37:07;7.63;;;5.80;;
6725;SDS011;3400;48.506;11.692;2023-09-18T08:39:35;7.87;;;5.80;;
6725;SDS011;3400;48.506;11.692;2023-09-18T08:42:04;6.57;;;5.97;;
6725;SDS011;3400;48.506;11.692;2023-09-18T08:44:32;6.23;;;5.63;;
6725;SDS011;3400;48.506;11.692;2023-09-18T08:47:01;6.97;;;5.07;;
6725;SDS011;3400;48.506;11.692;2023-09-18T08:49:29;5.80;;;5.17;;
6725;SDS011;3400;48.506;11.692;2023-09-18T08:51:59;7.50;;;5.13;;
6725;SDS011;3400;48.506;11.692;2023-09-18T08:54:28;6.73;;;4.00;;
6725;SDS011;3400;48.506;11.692;2023-09-18T08:56:56;5.73;;;4.60;;
6725;SDS011;3400;48.506;11.692;2023-09-18T08:59:24;9.67;;;4.90;;
6725;SDS011;3400;48.506;11.692;2023-09-18T09:01:53;7.27;;;5.27;;
6725;SDS011;3400;48.506;11.692;2023-09-18T09:04:21;9.30;;;4.83;;
6725;SDS011;3400;48.506;11.692;2023-09-18T09:06:48;5.03;;;4.57;;
6725;SDS011;3400;48.506;11.692;2023-09-18T09:09:18;5.03;;;4.47;;
6725;SDS011;3400;48.506;11.692;2023-09-18T09:11:48;4.33;;;3.93;;
6725;SDS011;3400;48.506;11.692;2023-09-18T09:14:16;6.47;;;3.90;;
6725;SDS011;3400;48.506;11.692;2023-09-18T09:16:47;7.77;;;4.53;;
6725;SDS011;3400;48.506;11.692;2023-09-18T09:19:16;7.67;;;4.13;;
6725;SDS011;3400;48.506;11.692;2023-09-18T09:21:44;8.00;;;4.13;;
6725;SDS011;3400;48.506;11.692;2023-09-18T09:24:12;5.80;;;3.60;;
6725;SDS011;3400;48.506;11.692;2023-09-18T09:26:41;8.13;;;3.43;;
6725;SDS011;3400;48.506;11.692;2023-09-18T09:29:14;6.80;;;4.20;;
6725;SDS011;3400;48.506;11.692;2023-09-18T09:31:44;8.20;;;4.33;;
6725;SDS011;3400;48.506;11.692;2023-09-18T09:34:12;7.97;;;3.73;;
6725;SDS011;3400;48.506;11.692;2023-09-18T09:36:52;8.83;;;4.27;;
6725;SDS011;3400;48.506;11.692;2023-09-18T09:39:20;8.70;;;4.20;;
6725;SDS011;3400;48.506;11.692;2023-09-18T09:41:52;10.50;;;4.20;;
6725;SDS011;3400;48.506;11.692;2023-09-18T09:44:20;7.20;;;4.10;;
6725;SDS011;3400;48.506;11.692;2023-09-18T09:46:48;7.43;;;4.50;;
6725;SDS011;3400;48.506;11.692;2023-09-18T09:49:17;7.50;;;4.37;;
6725;SDS011;3400;48.506;11.692;2023-09-18T09:51:49;5.63;;;3.93;;
6725;SDS011;3400;48.506;11.692;2023-09-18T09:54:18;7.00;;;4.40;;
6725;SDS011;3400;48.506;11.692;2023-09-18T09:57:03;4.90;;;4.40;;
6725;SDS011;3400;48.506;11.692;2023-09-18T09:59:30;7.53;;;3.97;;
6725;SDS011;3400;48.506;11.692;2023-09-18T10:02:01;10.60;;;4.47;;
6725;SDS011;3400;48.506;11.692;2023-09-18T10:04:29;7.70;;;4.33;;
6725;SDS011;3400;48.506;11.692;2023-09-18T10:07:03;10.73;;;4.07;;
6725;SDS011;3400;48.506;11.692;2023-09-18T10:09:33;10.47;;;4.10;;
6725;SDS011;3400;48.506;11.692;2023-09-18T10:12:03;7.73;;;4.57;;
6725;SDS011;3400;48.506;11.692;2023-09-18T10:14:37;9.93;;;4.33;;
6725;SDS011;3400;48.506;11.692;2023-09-18T10:17:10;5.77;;;3.90;;
6725;SDS011;3400;48.506;11.692;2023-09-18T10:19:39;7.73;;;4.60;;
6725;SDS011;3400;48.506;11.692;2023-09-18T10:22:09;10.47;;;3.90;;
6725;SDS011;3400;48.506;11.692;2023-09-18T10:24:39;12.50;;;3.63;;
6725;SDS011;3400;48.506;11.692;2023-09-18T10:27:09;9.17;;;4.63;;
6725;SDS011;3400;48.506;11.692;2023-09-18T10:29:41;8.90;;;4.00;;
6725;SDS011;3400;48.506;11.692;2023-09-18T10:32:10;8.63;;;3.93;;
6725;SDS011;3400;48.506;11.692;2023-09-18T10:34:39;7.87;;;3.93;;
6725;SDS011;3400;48.506;11.692;2023-09-18T10:37:08;8.97;;;3.73;;
6725;SDS011;3400;48.506;11.692;2023-09-18T10:39:38;7.03;;;4.00;;
6725;SDS011;3400;48.506;11.692;2023-09-18T10:42:07;5.43;;;3.80;;
6725;SDS011;3400;48.506;11.692;2023-09-18T10:44:36;6.80;;;3.50;;
6725;SDS011;3400;48.506;11.692;2023-09-18T10:47:06;8.73;;;4.27;;
6725;SDS011;3400;48.506;11.692;2023-09-18T10:49:34;6.53;;;3.90;;
6725;SDS011;3400;48.506;11.692;2023-09-18T10:52:02;6.73;;;3.73;;
6725;SDS011;3400;48.506;11.692;2023-09-18T10:54:31;6.53;;;3.07;;
6725;SDS011;3400;48.506;11.692;2023-09-18T10:57:00;6.23;;;3.70;;
6725;SDS011;3400;48.506;11.692;2023-09-18T10:59:28;5.43;;;2.83;;
6725;SDS011;3400;48.506;11.692;2023-09-18T11:02:02;7.87;;;3.60;;
6725;SDS011;3400;48.506;11.692;2023-09-18T11:04:31;5.13;;;2.93;;
6725;SDS011;3400;48.506;11.692;2023-09-18T11:07:03;8.20;;;4.10;;
6725;SDS011;3400;48.506;11.692;2023-09-18T11:09:32;8.90;;;4.00;;
6725;SDS011;3400;48.506;11.692;2023-09-18T11:12:08;13.10;;;4.00;;
6725;SDS011;3400;48.506;11.692;2023-09-18T11:14:43;10.77;;;3.73;;
6725;SDS011;3400;48.506;11.692;2023-09-18T11:17:28;7.60;;;3.27;;
6725;SDS011;3400;48.506;11.692;2023-09-18T11:20:06;11.00;;;3.03;;
6725;SDS011;3400;48.506;11.692;2023-09-18T11:22:37;5.93;;;3.10;;
6725;SDS011;3400;48.506;11.692;2023-09-18T11:27:54;10.70;;;3.30;;
6725;SDS011;3400;48.506;11.692;2023-09-18T11:30:22;6.50;;;2.57;;
6725;SDS011;3400;48.506;11.692;2023-09-18T11:32:51;10.17;;;3.20;;
6725;SDS011;3400;48.506;11.692;2023-09-18T11:35:21;6.67;;;2.60;;
6725;SDS011;3400;48.506;11.692;2023-09-18T11:38:02;8.60;;;2.80;;
6725;SDS011;3400;48.506;11.692;2023-09-18T11:40:31;8.77;;;2.93;;
6725;SDS011;3400;48.506;11.692;2023-09-18T11:45:49;7.47;;;2.93;;
6725;SDS011;3400;48.506;11.692;2023-09-18T11:48:19;10.87;;;3.27;;
6725;SDS011;3400;48.506;11.692;2023-09-18T11:50:49;11.37;;;2.50;;
6725;SDS011;3400;48.506;11.692;2023-09-18T11:53:17;10.13;;;3.33;;
6725;SDS011;3400;48.506;11.692;2023-09-18T11:55:45;8.37;;;3.17;;
6725;SDS011;3400;48.506;11.692;2023-09-18T11:58:13;8.20;;;3.40;;
6725;SDS011;3400;48.506;11.692;2023-09-18T12:00:41;6.87;;;2.77;;
6725;SDS011;3400;48.506;11.692;2023-09-18T12:03:16;7.87;;;2.90;;
6725;SDS011;3400;48.506;11.692;2023-09-18T12:05:55;8.07;;;2.90;;
6725;SDS011;3400;48.506;11.692;2023-09-18T12:08:23;8.80;;;3.20;;
6725;SDS011;3400;48.506;11.692;2023-09-18T12:10:53;7.80;;;2.60;;
6725;SDS011;3400;48.506;11.692;2023-09-18T12:13:21;8.27;;;2.47;;
6725;SDS011;3400;48.506;11.692;2023-09-18T12:15:49;11.13;;;2.60;;
6725;SDS011;3400;48.506;11.692;2023-09-18T12:18:17;9.13;;;2.97;;
6725;SDS011;3400;48.506;11.692;2023-09-18T12:20:46;7.43;;;2.40;;
6725;SDS011;3400;48.506;11.692;2023-09-18T12:23:15;6.70;;;2.00;;
6725;SDS011;3400;48.506;11.692;2023-09-18T12:25:45;9.43;;;3.30;;
6725;SDS011;3400;48.506;11.692;2023-09-18T12:28:15;7.80;;;2.47;;
6725;SDS011;3400;48.506;11.692;2023-09-18T12:30:43;6.80;;;2.50;;
6725;SDS011;3400;48.506;11.692;2023-09-18T12:33:12;6.03;;;1.83;;
6725;SDS011;3400;48.506;11.692;2023-09-18T12:35:40;7.63;;;1.97;;
6725;SDS011;3400;48.506;11.692;2023-09-18T12:38:16;10.20;;;2.07;;
6725;SDS011;3400;48.506;11.692;2023-09-18T12:40:45;8.03;;;2.43;;
6725;SDS011;3400;48.506;11.692;2023-09-18T12:43:13;2.77;;;1.87;;
6725;SDS011;3400;48.506;11.692;2023-09-18T12:45:42;10.90;;;2.87;;
6725;SDS011;3400;48.506;11.692;2023-09-18T12:48:11;10.47;;;2.70;;
6725;SDS011;3400;48.506;11.692;2023-09-18T12:50:39;10.97;;;2.97;;
6725;SDS011;3400;48.506;11.692;2023-09-18T12:53:10;11.63;;;2.60;;
6725;SDS011;3400;48.506;11.692;2023-09-18T12:55:40;6.20;;;2.63;;
6725;SDS011;3400;48.506;11.692;2023-09-18T12:58:12;7.13;;;2.20;;
6725;SDS011;3400;48.506;11.692;2023-09-18T13:00:44;7.53;;;2.30;;
6725;SDS011;3400;48.506;11.692;2023-09-18T13:03:12;5.23;;;2.00;;
6725;SDS011;3400;48.506;11.692;2023-09-18T13:05:40;6.10;;;2.00;;
6725;SDS011;3400;48.506;11.692;2023-09-18T13:08:09;6.63;;;1.90;;
6725;SDS011;3400;48.506;11.692;2023-09-18T13:10:43;5.00;;;1.87;;
6725;SDS011;3400;48.506;11.692;2023-09-18T13:13:17;4.30;;;1.93;;
6725;SDS011;3400;48.506;11.692;2023-09-18T13:15:46;5.07;;;1.80;;
6725;SDS011;3400;48.506;11.692;2023-09-18T13:18:15;6.23;;;2.07;;
6725;SDS011;3400;48.506;11.692;2023-09-18T13:20:45;13.07;;;2.53;;
6725;SDS011;3400;48.506;11.692;2023-09-18T13:23:12;4.73;;;1.30;;
6725;SDS011;3400;48.506;11.692;2023-09-18T13:25:41;3.57;;;1.60;;
6725;SDS011;3400;48.506;11.692;2023-09-18T13:28:12;5.13;;;2.13;;
6725;SDS011;3400;48.506;11.692;2023-09-18T13:30:41;4.20;;;1.77;;
6725;SDS011;3400;48.506;11.692;2023-09-18T13:33:09;3.27;;;1.50;;
6725;SDS011;3400;48.506;11.692;2023-09-18T13:35:38;3.00;;;1.50;;
6725;SDS011;3400;48.506;11.692;2023-09-18T13:38:07;3.30;;;1.53;;
6725;SDS011;3400;48.506;11.692;2023-09-18T13:40:37;9.87;;;1.67;;
6725;SDS011;3400;48.506;11.692;2023-09-18T13:43:05;5.17;;;1.70;;
6725;SDS011;3400;48.506;11.692;2023-09-18T13:45:35;3.70;;;1.73;;
6725;SDS011;3400;48.506;11.692;2023-09-18T13:48:03;1.70;;;1.27;;
6725;SDS011;3400;48.506;11.692;2023-09-18T13:50:31;3.80;;;1.33;;
6725;SDS011;3400;48.506;11.692;2023-09-18T13:52:59;3.03;;;1.17;;
6725;SDS011;3400;48.506;11.692;2023-09-18T13:55:29;3.03;;;1.53;;
6725;SDS011;3400;48.506;11.692;2023-09-18T13:57:57;2.30;;;1.40;;
6725;SDS011;3400;48.506;11.692;2023-09-18T14:00:25;4.20;;;1.77;;
6725;SDS011;3400;48.506;11.692;2023-09-18T14:02:54;4.63;;;1.60;;
6725;SDS011;3400;48.506;11.692;2023-09-18T14:05:22;2.20;;;1.37;;
6725;SDS011;3400;48.506;11.692;2023-09-18T14:07:52;3.73;;;1.63;;
6725;SDS011;3400;48.506;11.692;2023-09-18T14:10:25;3.83;;;1.60;;
6725;SDS011;3400;48.506;11.692;2023-09-18T14:12:53;2.20;;;1.40;;
6725;SDS011;3400;48.506;11.692;2023-09-18T14:15:23;2.13;;;1.43;;
6725;SDS011;3400;48.506;11.692;2023-09-18T14:17:51;5.03;;;1.50;;
6725;SDS011;3400;48.506;11.692;2023-09-18T14:20:21;3.43;;;1.60;;
6725;SDS011;3400;48.506;11.692;2023-09-18T14:22:49;3.00;;;1.57;;
6725;SDS011;3400;48.506;11.692;2023-09-18T14:25:17;2.77;;;1.50;;
6725;SDS011;3400;48.506;11.692;2023-09-18T14:27:46;3.83;;;1.53;;
6725;SDS011;3400;48.506;11.692;2023-09-18T14:30:16;1.70;;;1.60;;
6725;SDS011;3400;48.506;11.692;2023-09-18T14:32:45;2.63;;;1.40;;
6725;SDS011;3400;48.506;11.692;2023-09-18T14:35:13;2.70;;;1.47;;
6725;SDS011;3400;48.506;11.692;2023-09-18T14:37:43;3.33;;;1.30;;
6725;SDS011;3400;48.506;11.692;2023-09-18T14:40:11;5.03;;;1.70;;
6725;SDS011;3400;48.506;11.692;2023-09-18T14:42:41;4.30;;;2.03;;
6725;SDS011;3400;48.506;11.692;2023-09-18T14:45:09;1.23;;;1.10;;
6725;SDS011;3400;48.506;11.692;2023-09-18T14:47:38;1.47;;;1.10;;
6725;SDS011;3400;48.506;11.692;2023-09-18T14:50:07;3.03;;;1.53;;
6725;SDS011;3400;48.506;11.692;2023-09-18T14:52:37;4.07;;;1.57;;
6725;SDS011;3400;48.506;11.692;2023-09-18T14:55:07;2.30;;;1.30;;
6725;SDS011;3400;48.506;11.692;2023-09-18T14:57:35;2.93;;;1.43;;
6725;SDS011;3400;48.506;11.692;2023-09-18T15:00:04;1.73;;;1.57;;
6725;SDS011;3400;48.506;11.692;2023-09-18T15:02:33;3.33;;;1.60;;
6725;SDS011;3400;48.506;11.692;2023-09-18T15:05:01;2.97;;;1.70;;
6725;SDS011;3400;48.506;11.692;2023-09-18T15:07:32;4.00;;;2.03;;
6725;SDS011;3400;48.506;11.692;2023-09-18T15:09:59;1.77;;;1.57;;
6725;SDS011;3400;48.506;11.692;2023-09-18T15:12:51;2.97;;;1.67;;
6725;SDS011;3400;48.506;11.692;2023-09-18T15:15:20;2.60;;;1.80;;
6725;SDS011;3400;48.506;11.692;2023-09-18T15:17:48;2.33;;;1.70;;
6725;SDS011;3400;48.506;11.692;2023-09-18T15:20:17;5.10;;;2.07;;